Faribault, MN (55021)

12:53 PM CST on November 20, 2017 (GMT -0600)
SW FARIBAULT MN | | Change Station

Elev 1084 ft 44.29 °N, 93.27 °W | Updated 5 minutes ago

Clear
Clear
46.6 °F
Feels Like 47 °F
N
1.7
Wind Variable Wind from South

Today
High -- | Low -- °F
--% Chance of Precip.
Yesterday
High -- | Low -- °F
Precip. -- in
Pressure 29.50 in
Visibility 10.0 miles
Clouds Clear
Windchill 47 °F
Dew Point 34 °F
Humidity 60%
Rainfall 0.00 in
Snow Depth Not available.
7:15 AM 4:41 PM
Waxing Crescent, 5% visible
METAR KFBL 201834Z AUTO 19008G14KT 10SM CLR 07/M01 A2950 RMK AO2
Pressure 29.50 in
Visibility 10.0 miles
Clouds Clear
Windchill 47 °F
Dew Point 34 °F
Humidity 60%
Rainfall 0.00 in
Snow Depth Not available.
7:15 AM 4:41 PM
Waxing Crescent, 5% visible
METAR KFBL 201834Z AUTO 19008G14KT 10SM CLR 07/M01 A2950 RMK AO2

Get Severe Weather Alerts

Thanks for signing up!

Be on the lookout for a verification email in your inbox.

You'll start receiving the daily forecast at 6 AM.

×

10-Day Weather Forecast

Almanac

Astronomy

Nov. 20, 2017 Rise Set
Actual Time
Civil Twilight
Nautical Twilight
Astronomical Twilight
Moon
Length of Visible Light
Length of Day
Tomorrow will be .
, % of the Moon is Illuminated

Today's Extremes

State Highs State Lows

Community

WunderPhotos

Category 6

Welcome to Category 6. This is the collective home for Weather Underground's featured writeups by Dr. Jeff Masters (right), Bob Henson (left), Chris Burt, and other regular contributors.

Nearby

Air Quality

  Air Quality AQ Index Pollutant
Not available.

Snow Depth

Station Depth Elevation

Earthquake Activity

City Distance Mag. Time & Date
Minimum magnitude displayed is 2.5.

Coastal Water Temperatures

Place Temperature

Stations

Nearby Weather Stations

Station Location Temp. Windchill Dew Point Humidity Wind Precip. Elev Updated Type
                   

Watches & Warnings

There are currently no watches in effect.